Time;durP1;ratioP1;P1;durP2;ratioP2;P2;SDS_P1;SDS_P2;PMS_P1;PMS_P2;Temp;Humidity;BMP_temperature;BMP_pressure;BME280_temperature;BME280_humidity;BME280_pressure;Samples;Min_cycle;Max_cycle;Signal;HPM_P1;HPM_P2
2020/12/04 00:01:14;;;;;;;16.27;7.45;;;;;;;7.55;56.25;98855.16;4990185;28;20045;-70
2020/12/04 00:03:40;;;;;;;16.73;7.05;;;;;;;7.68;56.11;98850.50;4984772;28;20628;-67
2020/12/04 00:06:05;;;;;;;19.02;8.18;;;;;;;7.33;56.44;98833.59;4987525;28;20038;-68
2020/12/04 00:08:31;;;;;;;17.45;7.05;;;;;;;7.58;56.17;98834.50;4985658;28;20115;-68
2020/12/04 00:10:56;;;;;;;16.60;7.38;;;;;;;7.46;56.39;98834.91;4989828;28;20042;-67
2020/12/04 00:13:22;;;;;;;15.80;6.25;;;;;;;7.06;57.20;98830.97;4987641;28;20031;-67
2020/12/04 00:15:47;;;;;;;12.95;7.22;;;;;;;7.15;56.69;98824.72;5003266;28;20034;-68
2020/12/04 00:18:12;;;;;;;13.52;6.25;;;;;;;7.49;56.35;98824.50;4968906;28;20070;-67
2020/12/04 00:20:38;;;;;;;16.88;7.05;;;;;;;7.05;57.22;98822.41;4986178;28;20034;-69
2020/12/04 00:23:03;;;;;;;13.77;6.55;;;;;;;7.23;56.59;98813.31;4988578;28;20065;-69
2020/12/04 00:25:29;;;;;;;18.15;7.60;;;;;;;7.41;56.44;98817.03;4998380;28;20518;-68
2020/12/04 00:27:54;;;;;;;15.50;6.82;;;;;;;7.51;56.13;98817.59;4986128;28;20054;-67
2020/12/04 00:30:20;;;;;;;13.32;5.90;;;;;;;7.40;56.19;98814.50;4982625;28;20038;-68
2020/12/04 00:32:45;;;;;;;20.05;7.40;;;;;;;7.31;56.24;98807.94;4989591;28;20081;-66
2020/12/04 00:35:11;;;;;;;17.88;7.43;;;;;;;7.37;56.45;98794.06;4984738;28;20045;-70
2020/12/04 00:37:36;;;;;;;13.70;6.90;;;;;;;7.19;56.97;98796.31;4988875;28;20427;-67
2020/12/04 00:40:03;;;;;;;13.48;7.55;;;;;;;7.27;56.67;98789.19;4986489;28;20045;-69
2020/12/04 00:42:29;;;;;;;16.63;6.38;;;;;;;7.35;55.66;98786.38;4988251;28;20065;-67
2020/12/04 00:44:54;;;;;;;14.90;8.00;;;;;;;7.40;55.67;98788.81;4985468;28;20058;-69
2020/12/04 00:47:20;;;;;;;18.00;7.70;;;;;;;7.07;55.98;98797.50;5003935;28;20041;-69
2020/12/04 00:49:45;;;;;;;16.83;6.47;;;;;;;7.09;56.20;98774.34;4988473;28;20407;-67
2020/12/04 00:52:11;;;;;;;12.60;7.10;;;;;;;6.94;56.84;98769.66;4986186;28;20031;-68
2020/12/04 00:54:37;;;;;;;18.10;7.32;;;;;;;7.18;56.34;98770.66;4987078;28;20550;-68
2020/12/04 00:57:07;;;;;;;16.70;8.07;;;;;;;7.04;56.54;98760.81;4988299;28;20026;-69
2020/12/04 00:59:41;;;;;;;13.77;6.22;;;;;;;7.41;55.83;98752.78;4989256;28;20030;-67
2020/12/04 01:02:06;;;;;;;19.55;7.93;;;;;;;7.05;56.45;98749.63;4985516;28;20046;-68
2020/12/04 01:04:31;;;;;;;21.48;7.05;;;;;;;6.78;57.15;98739.28;4988058;28;20053;-68
2020/12/04 01:06:57;;;;;;;17.58;7.20;;;;;;;7.15;56.34;98751.03;4987368;28;20041;-67
2020/12/04 01:09:22;;;;;;;16.98;7.18;;;;;;;7.03;56.64;98743.69;4985980;28;20088;-68
2020/12/04 01:11:48;;;;;;;17.20;8.18;;;;;;;6.77;57.12;98741.94;4985327;28;20411;-66
2020/12/04 01:14:13;;;;;;;17.48;6.72;;;;;;;7.09;56.35;98728.09;4982327;28;20042;-69
2020/12/04 01:16:39;;;;;;;15.07;7.28;;;;;;;6.90;56.73;98727.84;4985975;28;20188;-67
2020/12/04 01:19:04;;;;;;;19.63;7.70;;;;;;;6.91;56.52;98721.81;4986208;28;20042;-67
2020/12/04 01:21:30;;;;;;;15.65;8.13;;;;;;;6.93;56.41;98725.16;4984717;28;20042;-69
2020/12/04 01:23:55;;;;;;;15.70;6.53;;;;;;;6.70;56.95;98713.03;4987667;28;20109;-69
2020/12/04 01:26:21;;;;;;;23.08;7.55;;;;;;;6.71;56.78;98707.00;4988792;28;20040;-68
2020/12/04 01:28:46;;;;;;;21.15;9.23;;;;;;;7.25;55.41;98710.47;4985518;28;20034;-69
2020/12/04 01:31:12;;;;;;;21.25;7.90;;;;;;;6.96;55.64;98701.13;4983290;28;23306;-67
2020/12/04 01:33:37;;;;;;;20.83;7.47;;;;;;;6.89;56.00;98703.03;4982600;28;20091;-68
2020/12/04 01:36:03;;;;;;;20.20;7.20;;;;;;;6.63;56.19;98699.53;4984068;28;20042;-70
2020/12/04 01:38:29;;;;;;;15.15;7.50;;;;;;;6.60;56.04;98701.34;4992059;28;20053;-70
2020/12/04 01:41:01;;;;;;;21.40;8.93;;;;;;;6.74;55.82;98686.38;4988491;28;20583;-68
2020/12/04 01:43:27;;;;;;;16.42;7.63;;;;;;;6.75;55.73;98677.78;4987817;28;20517;-67
2020/12/04 01:45:54;;;;;;;14.88;6.97;;;;;;;6.42;56.19;98680.47;4985830;28;20035;-69
2020/12/04 01:48:20;;;;;;;16.95;6.57;;;;;;;6.58;55.56;98685.16;4987543;28;20073;-68
2020/12/04 01:50:45;;;;;;;16.23;7.28;;;;;;;6.62;55.61;98671.34;4989569;28;20050;-67
2020/12/04 01:53:11;;;;;;;19.10;7.32;;;;;;;6.75;55.21;98672.66;4993502;28;20111;-68
2020/12/04 01:55:36;;;;;;;22.92;6.55;;;;;;;6.91;54.80;98667.03;4994239;28;20498;-68
2020/12/04 01:58:03;;;;;;;18.52;8.18;;;;;;;6.50;55.38;98653.72;4993785;28;20038;-69
2020/12/04 02:00:28;;;;;;;16.13;6.82;;;;;;;6.42;55.53;98654.81;4981471;28;20113;-70
2020/12/04 02:02:54;;;;;;;13.60;7.25;;;;;;;6.55;55.62;98644.19;4991284;28;20118;-68
2020/12/04 02:05:19;;;;;;;12.43;5.63;;;;;;;6.51;55.43;98645.16;4992454;28;20030;-69
2020/12/04 02:08:01;;;;;;;15.38;6.35;;;;;;;6.49;55.59;98641.81;4996721;28;20060;-70
2020/12/04 02:10:38;;;;;;;14.27;6.70;;;;;;;6.48;55.17;98637.56;4991188;28;20041;-70
2020/12/04 02:13:06;;;;;;;16.02;7.30;;;;;;;6.57;55.17;98637.28;4989627;28;20535;-68
2020/12/04 02:15:32;;;;;;;14.07;6.20;;;;;;;6.53;55.17;98638.25;4989191;28;20034;-69
2020/12/04 02:18:02;;;;;;;17.05;6.68;;;;;;;6.20;55.95;98643.50;4988844;28;20035;-70
2020/12/04 02:20:33;;;;;;;17.38;6.35;;;;;;;6.20;55.62;98643.50;4990375;28;20523;-69
2020/12/04 02:22:59;;;;;;;17.53;7.33;;;;;;;6.59;54.82;98626.09;4988718;28;20038;-66
2020/12/04 02:25:25;;;;;;;16.38;6.32;;;;;;;6.49;54.80;98624.66;4991112;28;20034;-65
2020/12/04 02:27:51;;;;;;;10.63;5.68;;;;;;;6.39;55.14;98636.94;4995197;28;20014;-67
2020/12/04 02:30:20;;;;;;;19.83;6.97;;;;;;;6.89;53.67;98618.28;4995484;28;20369;-67
2020/12/04 02:32:46;;;;;;;18.92;6.28;;;;;;;6.48;54.53;98624.75;4992384;28;20037;-69
2020/12/04 02:35:11;;;;;;;15.55;4.85;;;;;;;6.23;54.87;98613.47;4994281;28;20034;-68
2020/12/04 02:37:37;;;;;;;16.90;6.68;;;;;;;6.52;54.21;98619.47;4994433;28;20538;-67
2020/12/04 02:40:03;;;;;;;13.02;5.55;;;;;;;6.67;54.11;98620.69;4992157;28;20415;-67
2020/12/04 02:42:29;;;;;;;13.50;5.90;;;;;;;6.50;53.79;98616.09;4992270;28;20057;-69
2020/12/04 02:44:54;;;;;;;15.40;6.38;;;;;;;6.52;54.05;98605.78;4988074;28;20085;-67
2020/12/04 02:47:24;;;;;;;17.95;6.93;;;;;;;6.88;52.77;98610.63;4994254;28;20034;-70
2020/12/04 02:49:49;;;;;;;15.98;6.78;;;;;;;6.53;53.05;98612.59;4988901;28;20030;-70
2020/12/04 02:52:19;;;;;;;12.25;5.57;;;;;;;6.51;53.79;98611.81;4994825;28;20036;-68
2020/12/04 02:54:44;;;;;;;13.93;5.82;;;;;;;6.75;52.83;98603.34;4990509;28;20053;-68
2020/12/04 02:57:10;;;;;;;14.90;5.82;;;;;;;6.46;53.41;98601.69;4989871;28;20455;-69
2020/12/04 02:59:35;;;;;;;12.20;5.57;;;;;;;6.39;53.75;98601.03;4991115;28;20034;-67
2020/12/04 03:02:01;;;;;;;11.95;5.40;;;;;;;6.42;53.51;98603.50;4997623;28;20034;-68
2020/12/04 03:04:26;;;;;;;15.57;5.72;;;;;;;6.75;52.82;98598.19;4993285;28;20014;-67
2020/12/04 03:06:51;;;;;;;14.70;5.45;;;;;;;6.49;53.09;98598.19;4993393;28;20027;-67
2020/12/04 03:09:17;;;;;;;15.10;5.80;;;;;;;6.54;53.18;98607.44;4992802;28;20061;-67
2020/12/04 03:11:42;;;;;;;12.60;5.40;;;;;;;6.53;52.90;98597.19;4996482;28;20488;-71
2020/12/04 03:14:08;;;;;;;13.52;5.70;;;;;;;6.82;52.04;98586.84;4991078;28;20125;-68
2020/12/04 03:16:33;;;;;;;13.25;5.00;;;;;;;6.91;51.58;98590.84;4996027;28;20034;-69
2020/12/04 03:18:59;;;;;;;13.20;5.47;;;;;;;6.64;52.67;98579.72;5009971;28;20038;-70
2020/12/04 03:21:24;;;;;;;13.48;5.40;;;;;;;6.62;52.25;98589.22;4993798;28;20034;-69
2020/12/04 03:23:49;;;;;;;13.20;6.40;;;;;;;6.67;52.37;98589.06;4991674;28;20842;-69
2020/12/04 03:26:15;;;;;;;12.35;5.50;;;;;;;6.85;51.93;98594.47;4996720;28;20054;-68
2020/12/04 03:28:40;;;;;;;13.95;5.50;;;;;;;6.56;52.52;98599.66;4992754;28;20796;-67
2020/12/04 03:31:06;;;;;;;13.35;5.40;;;;;;;6.50;52.55;98593.00;4990219;28;20486;-68
2020/12/04 03:33:31;;;;;;;12.48;5.22;;;;;;;6.53;52.47;98592.06;4988230;28;20088;-69
2020/12/04 03:35:57;;;;;;;12.82;4.82;;;;;;;6.65;52.26;98582.25;4992270;28;20045;-69
2020/12/04 03:38:22;;;;;;;16.65;5.65;;;;;;;6.69;52.00;98588.13;4984906;28;20105;-68
2020/12/04 03:40:48;;;;;;;11.77;5.55;;;;;;;6.67;52.36;98581.34;4995434;28;20121;-68
2020/12/04 03:43:13;;;;;;;16.55;5.45;;;;;;;6.62;52.14;98576.38;4993168;28;20456;-68
2020/12/04 03:45:39;;;;;;;16.80;6.63;;;;;;;6.62;52.32;98577.22;4987484;28;20026;-69
2020/12/04 03:48:04;;;;;;;12.45;5.05;;;;;;;6.54;52.16;98558.66;5013312;28;20042;-67
2020/12/04 03:50:30;;;;;;;13.50;5.05;;;;;;;6.49;52.53;98568.22;5000220;28;20439;-70
2020/12/04 03:52:55;;;;;;;17.38;6.28;;;;;;;6.57;52.26;98568.00;4992439;28;20439;-68
2020/12/04 03:55:21;;;;;;;14.63;6.82;;;;;;;6.41;52.62;98571.03;4992829;28;20129;-67
2020/12/04 03:57:46;;;;;;;15.55;6.38;;;;;;;6.73;51.95;98561.47;4993320;28;20057;-68
2020/12/04 04:00:12;;;;;;;14.02;5.57;;;;;;;6.68;52.31;98555.66;4987915;28;20034;-69
2020/12/04 04:02:38;;;;;;;11.63;5.47;;;;;;;6.40;52.65;98553.94;4992913;28;20053;-68
2020/12/04 04:05:05;;;;;;;14.77;6.38;;;;;;;6.72;51.91;98552.09;4987651;28;20116;-68
2020/12/04 04:07:30;;;;;;;13.85;5.68;;;;;;;6.54;52.39;98552.66;4994143;28;20177;-69
2020/12/04 04:09:56;;;;;;;13.20;4.80;;;;;;;6.37;52.43;98543.78;4989422;28;20644;-67
2020/12/04 04:12:21;;;;;;;13.07;6.20;;;;;;;6.69;52.27;98543.66;4991516;28;20030;-68
2020/12/04 04:14:47;;;;;;;14.10;6.13;;;;;;;6.28;52.82;98549.22;4986735;28;20057;-70
2020/12/04 04:17:12;;;;;;;14.75;5.63;;;;;;;6.86;51.77;98539.63;4992142;28;20030;-66
2020/12/04 04:19:38;;;;;;;11.20;5.22;;;;;;;6.77;52.03;98537.38;4991430;28;20112;-70
2020/12/04 04:22:03;;;;;;;12.80;6.38;;;;;;;6.58;52.54;98531.16;4995062;28;20044;-71
2020/12/04 04:24:29;;;;;;;12.20;5.57;;;;;;;6.25;53.14;98531.31;4993135;28;20038;-67
2020/12/04 04:26:54;;;;;;;12.80;5.78;;;;;;;6.35;52.86;98524.19;4990473;28;20026;-68
2020/12/04 04:29:19;;;;;;;15.02;5.90;;;;;;;6.48;52.76;98534.94;4992841;28;20041;-69
2020/12/04 04:31:50;;;;;;;14.68;6.75;;;;;;;6.70;52.16;98530.78;4985950;28;20105;-68
2020/12/04 04:34:15;;;;;;;12.65;5.25;;;;;;;6.62;52.46;98532.75;4976536;28;20034;-67
2020/12/04 04:36:41;;;;;;;11.60;5.07;;;;;;;6.75;52.38;98530.63;4997056;28;20504;-69
2020/12/04 04:39:06;;;;;;;11.68;4.85;;;;;;;6.58;52.25;98531.16;4988792;28;20034;-69
2020/12/04 04:41:31;;;;;;;15.10;6.35;;;;;;;6.55;52.35;98526.13;4993032;28;20635;-69
2020/12/04 04:43:57;;;;;;;16.52;5.80;;;;;;;6.71;52.20;98527.31;4993858;28;20034;-68
2020/12/04 04:47:08;;;;;;;14.52;6.75;;;;;;;6.36;53.26;98521.59;4990085;28;20038;-70
2020/12/04 04:49:41;;;;;;;12.82;5.63;;;;;;;6.58;52.75;98520.88;4989804;28;20046;-68
2020/12/04 04:52:07;;;;;;;17.27;6.07;;;;;;;6.65;52.66;98517.22;4986667;28;20578;-69
2020/12/04 04:54:39;;;;;;;14.90;6.13;;;;;;;6.12;53.66;98514.66;4991068;28;20034;-67
2020/12/04 04:57:05;;;;;;;16.13;6.32;;;;;;;6.19;54.42;98516.97;4987166;28;20038;-68
2020/12/04 04:59:30;;;;;;;15.32;6.93;;;;;;;6.39;54.48;98510.41;4996390;28;20120;-69
2020/12/04 05:01:56;;;;;;;16.73;6.88;;;;;;;6.52;53.71;98508.25;4989328;28;20037;-69
2020/12/04 05:04:22;;;;;;;15.80;6.55;;;;;;;6.43;54.24;98510.25;4989380;28;20117;-67
2020/12/04 05:06:47;;;;;;;12.57;6.20;;;;;;;6.07;54.86;98493.44;4989467;28;20038;-70
2020/12/04 05:09:21;;;;;;;13.07;5.70;;;;;;;6.58;53.83;98506.31;4988108;28;20042;-68
2020/12/04 05:12:15;;;;;;;18.98;7.13;;;;;;;6.25;54.48;98515.94;4987688;28;20086;-67
2020/12/04 05:14:41;;;;;;;19.50;7.18;;;;;;;6.32;54.24;98509.75;4993126;28;20073;-69
2020/12/04 05:17:09;;;;;;;16.58;6.43;;;;;;;6.19;55.04;98508.44;4986460;28;20062;-67
2020/12/04 05:19:37;;;;;;;16.85;6.88;;;;;;;6.36;54.68;98519.03;4993098;28;20025;-67
2020/12/04 05:22:13;;;;;;;18.13;8.23;;;;;;;6.39;54.82;98505.25;4986920;28;20030;-67
2020/12/04 05:24:40;;;;;;;19.45;7.75;;;;;;;6.62;54.15;98497.63;4990267;28;20567;-67
2020/12/04 05:27:29;;;;;;;18.65;7.38;;;;;;;6.33;55.13;98510.59;4991433;28;20134;-68
2020/12/04 05:29:57;;;;;;;17.25;6.93;;;;;;;6.12;55.59;98499.28;4995124;28;20041;-69
2020/12/04 05:32:23;;;;;;;18.35;7.43;;;;;;;6.06;55.91;98523.38;4994450;28;20044;-67
2020/12/04 05:34:50;;;;;;;15.93;7.28;;;;;;;6.43;55.20;98497.41;4994925;28;20135;-68
2020/12/04 05:37:19;;;;;;;20.35;8.68;;;;;;;6.39;55.10;98497.56;4993048;28;20041;-67
2020/12/04 05:39:49;;;;;;;16.02;7.13;;;;;;;6.13;55.85;98503.50;4994758;28;20036;-68
2020/12/04 05:42:35;;;;;;;19.30;8.63;;;;;;;6.28;55.80;98505.59;4995198;28;20034;-69
2020/12/04 05:45:03;;;;;;;18.85;7.63;;;;;;;6.01;55.94;98500.44;4990408;28;20034;-70
2020/12/04 05:47:45;;;;;;;19.70;7.50;;;;;;;6.41;55.45;98509.44;5009132;28;20041;-67
2020/12/04 05:50:13;;;;;;;16.65;7.15;;;;;;;6.20;55.84;98505.81;4975152;28;20045;-69
2020/12/04 05:52:39;;;;;;;16.23;6.63;;;;;;;6.20;55.72;98512.69;4996101;28;20451;-67
2020/12/04 05:55:06;;;;;;;19.38;8.38;;;;;;;6.34;55.57;98502.84;4995157;28;20029;-72
2020/12/04 05:57:43;;;;;;;19.50;8.40;;;;;;;6.10;56.27;98508.75;4988748;28;20046;-70
2020/12/04 06:00:10;;;;;;;19.85;7.50;;;;;;;5.97;56.67;98506.53;4991795;28;20038;-67
2020/12/04 06:02:38;;;;;;;17.60;6.70;;;;;;;6.22;56.08;98505.78;4994992;28;20104;-69
2020/12/04 06:05:04;;;;;;;13.25;6.63;;;;;;;6.11;56.18;98516.38;4993567;28;20050;-67
2020/12/04 06:07:29;;;;;;;19.20;8.35;;;;;;;6.15;55.82;98506.88;4996835;28;20037;-68
2020/12/04 06:09:56;;;;;;;18.15;8.00;;;;;;;6.14;56.09;98503.47;4995617;28;20034;-68
2020/12/04 06:12:23;;;;;;;23.27;8.35;;;;;;;6.23;56.09;98499.78;5006796;28;20049;-69
2020/12/04 06:14:48;;;;;;;16.80;7.22;;;;;;;6.28;55.91;98492.78;4998316;28;20038;-68
2020/12/04 06:17:14;;;;;;;12.32;6.13;;;;;;;6.00;56.54;98503.03;4995486;28;20117;-70
2020/12/04 06:19:42;;;;;;;17.52;6.82;;;;;;;6.22;56.03;98513.47;4995069;28;20052;-68
2020/12/04 06:22:16;;;;;;;18.20;6.97;;;;;;;6.19;55.77;98513.59;4990306;28;20042;-68
2020/12/04 06:27:38;;;;;;;17.10;7.07;;;;;;;6.00;56.55;98503.88;4992717;28;20049;-67
2020/12/04 06:30:06;;;;;;;18.48;7.22;;;;;;;6.13;56.15;98511.19;4993144;28;20042;-68
2020/12/04 06:32:44;;;;;;;19.25;7.93;;;;;;;6.05;56.42;98518.28;4992903;28;20614;-69
2020/12/04 06:35:13;;;;;;;24.45;9.98;;;;;;;6.19;56.10;98513.59;4989878;28;20042;-69
2020/12/04 06:37:41;;;;;;;16.63;7.50;;;;;;;6.30;55.73;98514.09;4992579;28;20044;-69
2020/12/04 06:40:30;;;;;;;17.17;8.30;;;;;;;6.24;56.28;98522.78;4990729;28;20045;-68
2020/12/04 06:42:57;;;;;;;16.90;7.07;;;;;;;6.23;56.13;98516.00;4992836;28;20034;-67
2020/12/04 06:45:24;;;;;;;20.48;8.10;;;;;;;6.52;55.54;98521.09;5008378;28;20255;-67
2020/12/04 06:48:28;;;;;;;21.63;8.50;;;;;;;6.41;55.96;98519.72;4985330;28;20042;-67
2020/12/04 06:50:53;;;;;;;24.95;9.32;;;;;;;6.20;56.88;98515.25;4957353;28;20137;-67
2020/12/04 06:53:19;;;;;;;17.08;8.07;;;;;;;6.14;57.05;98526.56;4992350;28;20456;-66
2020/12/04 06:55:48;;;;;;;13.27;6.63;;;;;;;6.01;57.47;98526.06;4984946;28;20053;-67
2020/12/04 06:58:13;;;;;;;22.40;8.02;;;;;;;6.06;57.47;98537.94;4994512;28;20041;-70
2020/12/04 07:00:39;;;;;;;22.67;8.50;;;;;;;6.16;57.40;98526.47;4994049;28;20026;-66
2020/12/04 07:03:05;;;;;;;22.70;8.48;;;;;;;6.17;57.54;98534.13;4992235;28;20439;-67
2020/12/04 07:05:34;;;;;;;18.02;7.10;;;;;;;5.93;58.08;98525.41;4993125;28;20025;-67
2020/12/04 07:08:04;;;;;;;22.23;9.30;;;;;;;6.30;57.50;98542.31;4986265;28;20785;-69
2020/12/04 07:10:32;;;;;;;14.35;6.85;;;;;;;6.23;57.90;98551.09;4991477;28;20034;-69
2020/12/04 07:12:59;;;;;;;22.13;8.07;;;;;;;6.09;58.35;98548.06;4990936;28;20454;-70
2020/12/04 07:15:25;;;;;;;20.30;7.53;;;;;;;6.13;58.60;98552.22;4989494;28;20035;-67
2020/12/04 07:17:51;;;;;;;23.33;9.15;;;;;;;6.30;58.40;98557.69;4994055;28;20117;-69
2020/12/04 07:20:16;;;;;;;23.73;9.27;;;;;;;5.94;59.38;98557.91;4977415;28;20069;-68
2020/12/04 07:22:41;;;;;;;24.52;7.97;;;;;;;6.33;58.56;98552.47;4990936;28;20483;-67
2020/12/04 07:25:07;;;;;;;22.15;9.38;;;;;;;5.98;59.67;98556.94;4985780;28;20120;-68
2020/12/04 07:27:33;;;;;;;19.63;8.48;;;;;;;6.22;59.46;98557.09;4991015;28;20105;-70
2020/12/04 07:29:58;;;;;;;25.98;8.38;;;;;;;5.83;60.55;98554.78;4986078;28;20076;-66
2020/12/04 07:32:26;;;;;;;22.52;9.35;;;;;;;5.80;60.54;98554.88;4990269;28;20695;-69
2020/12/04 07:34:52;;;;;;;18.85;8.85;;;;;;;5.59;61.39;98553.75;4994359;28;20034;-68
2020/12/04 07:37:18;;;;;;;22.95;10.82;;;;;;;5.80;61.14;98554.88;4995233;28;20041;-67
2020/12/04 07:39:45;;;;;;;21.08;9.23;;;;;;;5.72;61.65;98554.25;4988348;28;20133;-70
2020/12/04 07:42:12;;;;;;;24.83;10.50;;;;;;;6.16;60.43;98558.13;4990300;28;20061;-67
2020/12/04 07:44:42;;;;;;;21.23;10.40;;;;;;;6.07;60.79;98562.66;4993740;28;20034;-68
2020/12/04 07:47:16;;;;;;;25.38;9.02;;;;;;;6.17;60.41;98562.34;4983956;28;20039;-67
2020/12/04 07:49:45;;;;;;;24.17;10.63;;;;;;;5.95;61.20;98567.28;4988385;28;20026;-67
2020/12/04 07:52:14;;;;;;;29.67;9.85;;;;;;;6.13;60.88;98571.03;4987352;28;20034;-68
2020/12/04 07:54:40;;;;;;;20.65;9.43;;;;;;;6.21;60.33;98570.81;4991513;28;20088;-67
2020/12/04 07:57:07;;;;;;;23.50;10.73;;;;;;;6.12;60.96;98569.34;4991591;28;20102;-69
2020/12/04 07:59:35;;;;;;;21.45;9.57;;;;;;;6.10;61.45;98577.97;4987221;28;20145;-67
2020/12/04 08:02:03;;;;;;;19.70;8.60;;;;;;;5.99;61.69;98570.59;4991277;28;20142;-66
2020/12/04 08:04:30;;;;;;;24.35;10.45;;;;;;;6.21;61.12;98575.94;4990447;28;20044;-68
2020/12/04 08:07:10;;;;;;;24.35;9.77;;;;;;;6.12;61.52;98584.75;4993049;28;20033;-65
2020/12/04 08:09:38;;;;;;;25.00;10.00;;;;;;;6.22;61.28;98575.03;4988093;28;20041;-66
2020/12/04 08:12:08;;;;;;;25.00;10.23;;;;;;;6.20;61.26;98585.34;4984364;28;20503;-66
2020/12/04 08:14:35;;;;;;;22.77;9.77;;;;;;;6.14;61.34;98592.38;4981821;28;20038;-68
2020/12/04 08:17:00;;;;;;;24.13;11.18;;;;;;;5.92;62.57;98585.28;4988230;28;20026;-67
2020/12/04 08:19:31;;;;;;;28.00;10.35;;;;;;;6.41;61.33;98585.59;4985954;28;20137;-66
2020/12/04 08:22:02;;;;;;;22.48;9.10;;;;;;;6.40;61.18;98589.03;4990184;28;20035;-69
2020/12/04 08:24:31;;;;;;;24.85;11.07;;;;;;;6.21;61.54;98581.06;4983691;28;20034;-67
2020/12/04 08:27:02;;;;;;;26.08;9.93;;;;;;;5.98;62.06;98589.41;4989136;28;20444;-68
2020/12/04 08:29:28;;;;;;;28.50;9.98;;;;;;;6.63;60.42;98580.59;4984677;28;20101;-69
2020/12/04 08:32:04;;;;;;;32.45;11.55;;;;;;;6.56;60.53;98584.25;4985515;28;20042;-67
2020/12/04 08:34:30;;;;;;;22.98;9.98;;;;;;;6.34;61.29;98584.94;4990544;28;20657;-66
2020/12/04 08:37:10;;;;;;;22.67;9.05;;;;;;;6.06;62.31;98589.22;4990803;28;20121;-68
2020/12/04 08:39:38;;;;;;;28.15;10.93;;;;;;;6.13;62.13;98578.72;4984470;28;20648;-67
2020/12/04 08:42:15;;;;;;;28.55;9.77;;;;;;;6.05;62.35;98579.81;4983969;28;20290;-67
2020/12/04 08:44:42;;;;;;;25.67;10.57;;;;;;;6.69;60.74;98575.28;4990269;28;20037;-67
2020/12/04 08:47:07;;;;;;;25.88;8.60;;;;;;;6.51;60.97;98592.09;4989873;28;20664;-67
2020/12/04 08:49:33;;;;;;;19.45;9.23;;;;;;;6.58;60.95;98588.44;4989563;28;20045;-69
2020/12/04 08:51:59;;;;;;;24.98;9.43;;;;;;;6.38;61.71;98593.38;4987076;28;20049;-67
2020/12/04 08:54:27;;;;;;;24.55;10.15;;;;;;;6.47;61.61;98589.69;4988616;28;20108;-67
2020/12/04 08:56:54;;;;;;;23.45;8.85;;;;;;;6.52;61.66;98593.81;4990401;28;20030;-68
2020/12/04 08:59:23;;;;;;;22.17;9.07;;;;;;;6.73;61.16;98601.72;4991293;28;20038;-67
2020/12/04 09:01:52;;;;;;;22.55;9.10;;;;;;;7.03;60.13;98602.44;4989420;28;20038;-67
2020/12/04 09:04:17;;;;;;;25.48;8.68;;;;;;;7.00;60.51;98599.97;4989724;28;20026;-68
2020/12/04 09:06:43;;;;;;;24.67;10.20;;;;;;;6.70;61.12;98601.78;4988192;28;20049;-71
2020/12/04 09:09:08;;;;;;;23.85;9.38;;;;;;;7.00;60.14;98600.81;4982470;28;20053;-68
2020/12/04 09:11:34;;;;;;;20.95;8.15;;;;;;;6.81;60.67;98603.16;4975145;28;20176;-67
2020/12/04 09:13:59;;;;;;;27.55;8.50;;;;;;;6.79;61.01;98612.63;4987680;28;20041;-68
2020/12/04 09:16:25;;;;;;;25.13;11.07;;;;;;;7.33;59.39;98602.31;4987939;28;20518;-68
2020/12/04 09:18:50;;;;;;;22.60;10.02;;;;;;;7.20;59.77;98609.59;4991299;28;20038;-67
2020/12/04 09:21:16;;;;;;;18.20;8.55;;;;;;;7.10;59.90;98609.06;4986366;28;20065;-67
2020/12/04 09:23:41;;;;;;;24.95;8.75;;;;;;;7.21;59.71;98614.69;4990346;28;20128;-69
2020/12/04 09:26:07;;;;;;;21.35;9.05;;;;;;;7.46;59.13;98608.72;4985844;28;20050;-70
2020/12/04 09:28:32;;;;;;;22.05;9.27;;;;;;;7.19;59.63;98620.75;4987644;28;20026;-68
2020/12/04 09:30:59;;;;;;;19.55;8.70;;;;;;;7.13;59.80;98626.94;4990275;28;20037;-69
2020/12/04 09:33:24;;;;;;;20.92;8.77;;;;;;;7.41;59.34;98620.84;4993223;28;20059;-67
2020/12/04 09:35:50;;;;;;;18.42;9.00;;;;;;;7.37;59.09;98624.44;4988175;28;20041;-69
2020/12/04 09:38:15;;;;;;;21.15;8.23;;;;;;;7.12;59.98;98634.69;4986683;28;20122;-66
2020/12/04 09:40:41;;;;;;;20.70;9.13;;;;;;;7.28;59.60;98629.00;4988310;28;20039;-67
2020/12/04 09:43:07;;;;;;;21.25;8.23;;;;;;;7.42;59.63;98635.41;4985432;28;20045;-71
2020/12/04 09:45:32;;;;;;;20.23;8.55;;;;;;;7.22;59.94;98641.22;4991144;28;20095;-67
2020/12/04 09:47:58;;;;;;;18.73;8.10;;;;;;;7.55;59.12;98646.94;4972357;28;20092;-69
2020/12/04 09:50:23;;;;;;;20.33;7.57;;;;;;;7.58;59.17;98640.84;4986811;28;20146;-69
2020/12/04 09:52:50;;;;;;;19.00;8.95;;;;;;;7.87;58.22;98643.25;5012315;22;20340;-74
2020/12/04 09:55:16;;;;;;;16.60;8.35;;;;;;;7.73;58.54;98642.91;5013495;28;20068;-74
2020/12/04 09:57:41;;;;;;;20.38;8.68;;;;;;;7.86;58.28;98643.31;5013952;28;20057;-76
2020/12/04 10:00:07;;;;;;;17.10;6.82;;;;;;;7.92;58.22;98643.06;5011601;28;20458;-73
2020/12/04 10:02:33;;;;;;;16.00;7.97;;;;;;;8.10;57.67;98629.56;5010708;28;20112;-72
2020/12/04 10:04:58;;;;;;;22.35;8.25;;;;;;;7.98;58.19;98637.72;5014954;28;20038;-74
2020/12/04 10:07:24;;;;;;;18.45;7.40;;;;;;;8.15;57.47;98638.81;5011301;28;20064;-73
2020/12/04 10:09:50;;;;;;;15.20;7.20;;;;;;;8.05;57.83;98625.47;5018944;28;20132;-73
2020/12/04 10:12:15;;;;;;;18.10;7.72;;;;;;;8.31;57.41;98634.81;5017152;28;20176;-74
2020/12/04 10:14:41;;;;;;;17.55;6.75;;;;;;;7.92;58.19;98624.22;5021680;28;20040;-73
2020/12/04 10:17:08;;;;;;;15.52;6.78;;;;;;;7.89;58.49;98630.34;5010124;28;20044;-72
2020/12/04 10:19:34;;;;;;;17.13;6.97;;;;;;;7.91;58.28;98620.81;5017015;28;20033;-74
2020/12/04 10:21:59;;;;;;;17.65;7.63;;;;;;;8.15;57.81;98623.38;5019222;28;20051;-72
2020/12/04 10:24:27;;;;;;;12.65;6.80;;;;;;;8.20;57.64;98606.06;5020815;28;20366;-74
2020/12/04 10:26:53;;;;;;;13.80;6.55;;;;;;;8.42;57.00;98617.25;5024757;28;20025;-74
2020/12/04 10:29:20;;;;;;;18.65;8.38;;;;;;;8.66;56.88;98619.75;5018089;28;20041;-73
2020/12/04 10:31:46;;;;;;;15.43;6.95;;;;;;;8.64;56.77;98616.38;5021826;28;20335;-73
2020/12/04 10:34:13;;;;;;;11.35;5.38;;;;;;;8.61;57.08;98613.94;5017389;28;20033;-74
2020/12/04 10:36:39;;;;;;;16.30;6.07;;;;;;;8.45;56.91;98617.13;5026245;28;20040;-74
2020/12/04 10:39:07;;;;;;;17.17;8.82;;;;;;;8.73;56.27;98619.47;5018466;28;20034;-75
2020/12/04 10:41:35;;;;;;;16.02;7.82;;;;;;;8.44;57.32;98612.88;5014983;28;20029;-75
2020/12/04 10:44:02;;;;;;;13.32;6.75;;;;;;;8.83;56.42;98608.78;5018789;28;20044;-72
2020/12/04 10:46:28;;;;;;;15.55;6.72;;;;;;;8.88;56.14;98612.84;5018467;28;20045;-75
2020/12/04 10:48:54;;;;;;;17.35;7.20;;;;;;;8.70;56.47;98611.00;5018901;28;20802;-74
2020/12/04 10:51:21;;;;;;;15.13;7.28;;;;;;;8.72;56.36;98610.03;5021885;28;20559;-72
2020/12/04 10:53:47;;;;;;;20.80;8.35;;;;;;;8.86;56.42;98604.38;5019741;28;20038;-73
2020/12/04 10:56:13;;;;;;;13.43;6.45;;;;;;;8.78;56.38;98616.72;5016309;28;20676;-74
2020/12/04 10:58:39;;;;;;;18.00;6.75;;;;;;;8.92;56.18;98614.41;5022852;28;20037;-73
2020/12/04 11:01:05;;;;;;;18.17;7.03;;;;;;;9.27;55.38;98622.44;5018812;28;20151;-72
2020/12/04 11:05:56;;;;;;;13.30;6.85;;;;;;;9.39;55.11;98625.41;5020339;28;20041;-73
2020/12/04 11:08:22;;;;;;;15.50;6.78;;;;;;;9.68;54.49;98627.56;5020078;28;20029;-74
2020/12/04 11:10:47;;;;;;;16.00;7.57;;;;;;;9.39;54.67;98625.41;5020982;28;20069;-73
2020/12/04 11:13:13;;;;;;;16.83;6.03;;;;;;;9.22;55.60;98626.94;5019591;28;20045;-73
2020/12/04 11:15:39;;;;;;;15.05;7.15;;;;;;;9.26;55.48;98635.38;5019211;28;20034;-73
2020/12/04 11:18:04;;;;;;;10.40;4.90;;;;;;;9.46;54.85;98652.59;5021446;28;20033;-74
2020/12/04 11:20:31;;;;;;;15.50;5.45;;;;;;;9.55;55.02;98634.16;5019917;28;20049;-73
2020/12/04 11:22:56;;;;;;;13.35;5.72;;;;;;;9.30;55.30;98642.91;5019670;28;20502;-72
2020/12/04 11:25:22;;;;;;;16.13;5.38;;;;;;;9.33;55.21;98632.50;5034774;28;20440;-73
2020/12/04 11:27:49;;;;;;;17.55;5.90;;;;;;;9.51;55.19;98641.19;5022322;28;20028;-73
2020/12/04 11:30:17;;;;;;;11.50;5.70;;;;;;;9.08;55.99;98642.13;5014388;28;20056;-74
2020/12/04 11:32:44;;;;;;;13.95;6.07;;;;;;;9.13;56.48;98655.66;5001477;28;20143;-74
2020/12/04 11:35:11;;;;;;;11.75;6.43;;;;;;;9.16;56.14;98655.53;5022927;28;20042;-74
2020/12/04 11:37:42;;;;;;;15.63;6.75;;;;;;;9.27;56.11;98653.38;5014091;28;20038;-77
2020/12/04 11:40:10;;;;;;;10.85;5.30;;;;;;;9.49;55.57;98660.22;5020180;28;20072;-74